sensor_id;sensor_type;location;lat;lon;timestamp;pressure;altitude;pressure_sealevel;temperature;humidity
48800;BME280;34611;47.964;7.982;2024-03-17T00:05:59;97458.69;;;11.54;67.67
48800;BME280;34611;47.964;7.982;2024-03-17T00:12:59;97455.13;;;11.55;67.68
48800;BME280;34611;47.964;7.982;2024-03-17T00:20:00;97449.09;;;11.55;67.54
48800;BME280;34611;47.964;7.982;2024-03-17T00:27:04;97441.28;;;11.55;67.51
48800;BME280;34611;47.964;7.982;2024-03-17T00:34:04;97446.50;;;11.55;67.80
48800;BME280;34611;47.964;7.982;2024-03-17T00:41:04;97437.88;;;11.54;67.67
48800;BME280;34611;47.964;7.982;2024-03-17T00:48:06;97436.91;;;11.55;67.76
48800;BME280;34611;47.964;7.982;2024-03-17T00:55:06;97420.47;;;11.55;67.72
48800;BME280;34611;47.964;7.982;2024-03-17T01:02:07;97410.03;;;11.55;67.61
48800;BME280;34611;47.964;7.982;2024-03-17T01:09:07;97402.22;;;11.55;67.68
48800;BME280;34611;47.964;7.982;2024-03-17T01:16:08;97389.22;;;11.55;67.68
48800;BME280;34611;47.964;7.982;2024-03-17T01:23:09;97384.00;;;11.55;67.55
48800;BME280;34611;47.964;7.982;2024-03-17T01:30:12;97384.00;;;11.55;67.67
48800;BME280;34611;47.964;7.982;2024-03-17T01:37:12;97376.19;;;11.55;67.72
48800;BME280;34611;47.964;7.982;2024-03-17T01:44:26;97372.78;;;11.54;67.88
48800;BME280;34611;47.964;7.982;2024-03-17T01:51:27;97363.19;;;11.55;67.48
48800;BME280;34611;47.964;7.982;2024-03-17T01:58:27;97359.75;;;11.54;67.80
48800;BME280;34611;47.964;7.982;2024-03-17T02:05:29;97341.53;;;11.54;67.70
48800;BME280;34611;47.964;7.982;2024-03-17T02:12:30;97342.34;;;11.55;67.77
48800;BME280;34611;47.964;7.982;2024-03-17T02:19:31;97342.34;;;11.55;67.68
48800;BME280;34611;47.964;7.982;2024-03-17T02:26:31;97332.75;;;11.55;67.61
48800;BME280;34611;47.964;7.982;2024-03-17T02:33:31;97328.38;;;11.56;67.55
48800;BME280;34611;47.964;7.982;2024-03-17T02:40:32;97331.13;;;11.54;67.83
48800;BME280;34611;47.964;7.982;2024-03-17T02:47:32;97324.13;;;11.55;67.67
48800;BME280;34611;47.964;7.982;2024-03-17T02:54:32;97302.31;;;11.56;67.66
48800;BME280;34611;47.964;7.982;2024-03-17T03:01:35;97300.69;;;11.55;67.60
48800;BME280;34611;47.964;7.982;2024-03-17T03:08:35;97305.91;;;11.55;67.56
48800;BME280;34611;47.964;7.982;2024-03-17T03:15:40;97311.09;;;11.55;67.94
48800;BME280;34611;47.964;7.982;2024-03-17T03:22:40;97317.25;;;11.54;67.68
48800;BME280;34611;47.964;7.982;2024-03-17T03:29:43;97315.50;;;11.54;67.81
48800;BME280;34611;47.964;7.982;2024-03-17T03:36:43;97307.69;;;11.54;67.66
48800;BME280;34611;47.964;7.982;2024-03-17T03:43:44;97311.09;;;11.55;67.87
48800;BME280;34611;47.964;7.982;2024-03-17T03:50:46;97314.53;;;11.55;67.49
48800;BME280;34611;47.964;7.982;2024-03-17T03:57:46;97317.94;;;11.56;67.68
48800;BME280;34611;47.964;7.982;2024-03-17T04:04:47;97304.13;;;11.55;67.69
48800;BME280;34611;47.964;7.982;2024-03-17T04:11:48;97302.47;;;11.54;67.87
48800;BME280;34611;47.964;7.982;2024-03-17T04:18:49;97303.28;;;11.55;67.62
48800;BME280;34611;47.964;7.982;2024-03-17T04:25:50;97296.41;;;11.54;67.62
48800;BME280;34611;47.964;7.982;2024-03-17T04:32:50;97302.31;;;11.56;67.52
48800;BME280;34611;47.964;7.982;2024-03-17T04:39:52;97305.91;;;11.55;67.75
48800;BME280;34611;47.964;7.982;2024-03-17T04:46:53;97305.06;;;11.54;67.82
48800;BME280;34611;47.964;7.982;2024-03-17T04:53:54;97311.09;;;11.55;67.65
48800;BME280;34611;47.964;7.982;2024-03-17T05:00:55;97312.75;;;11.56;67.64
48800;BME280;34611;47.964;7.982;2024-03-17T05:07:55;97301.63;;;11.54;67.54
48800;BME280;34611;47.964;7.982;2024-03-17T05:14:55;97297.25;;;11.54;67.72
48800;BME280;34611;47.964;7.982;2024-03-17T05:21:55;97302.47;;;11.54;67.70
48800;BME280;34611;47.964;7.982;2024-03-17T05:28:56;97296.41;;;11.54;67.78
48800;BME280;34611;47.964;7.982;2024-03-17T05:35:57;97300.69;;;11.55;67.66
48800;BME280;34611;47.964;7.982;2024-03-17T05:42:57;97305.91;;;11.55;67.58
48800;BME280;34611;47.964;7.982;2024-03-17T05:49:57;97311.09;;;11.55;67.76
48800;BME280;34611;47.964;7.982;2024-03-17T05:56:58;97320.69;;;11.54;67.75
48800;BME280;34611;47.964;7.982;2024-03-17T06:03:58;97316.31;;;11.55;67.69
48800;BME280;34611;47.964;7.982;2024-03-17T06:10:59;97317.25;;;11.54;67.77
48800;BME280;34611;47.964;7.982;2024-03-17T06:18:04;97318.91;;;11.55;67.59
48800;BME280;34611;47.964;7.982;2024-03-17T06:25:05;97305.91;;;11.55;67.64
48800;BME280;34611;47.964;7.982;2024-03-17T06:32:06;97295.47;;;11.55;67.69
48800;BME280;34611;47.964;7.982;2024-03-17T06:39:06;97299.88;;;11.54;67.79
48800;BME280;34611;47.964;7.982;2024-03-17T06:46:07;97300.69;;;11.55;67.51
48800;BME280;34611;47.964;7.982;2024-03-17T06:53:08;97304.13;;;11.55;67.76
48800;BME280;34611;47.964;7.982;2024-03-17T07:00:10;97295.47;;;11.55;67.70
48800;BME280;34611;47.964;7.982;2024-03-17T07:07:14;97303.28;;;11.55;67.60
48800;BME280;34611;47.964;7.982;2024-03-17T07:14:14;97304.13;;;11.55;67.98
48800;BME280;34611;47.964;7.982;2024-03-17T07:21:14;97309.31;;;11.55;67.67
48800;BME280;34611;47.964;7.982;2024-03-17T07:28:15;97312.88;;;11.54;67.71
48800;BME280;34611;47.964;7.982;2024-03-17T07:35:15;97303.28;;;11.55;67.83
48800;BME280;34611;47.964;7.982;2024-03-17T07:42:15;97305.06;;;11.54;67.61
48800;BME280;34611;47.964;7.982;2024-03-17T07:49:16;97314.53;;;11.55;67.59
48800;BME280;34611;47.964;7.982;2024-03-17T07:56:17;97311.91;;;11.55;67.68
48800;BME280;34611;47.964;7.982;2024-03-17T08:03:17;97306.72;;;11.55;67.68
48800;BME280;34611;47.964;7.982;2024-03-17T08:10:17;97320.69;;;11.54;67.62
48800;BME280;34611;47.964;7.982;2024-03-17T08:17:18;97292.06;;;11.54;67.71
48800;BME280;34611;47.964;7.982;2024-03-17T08:24:18;97287.78;;;11.53;67.65
48800;BME280;34611;47.964;7.982;2024-03-17T08:31:18;97291.22;;;11.54;67.69
48800;BME280;34611;47.964;7.982;2024-03-17T08:38:19;97298.09;;;11.55;67.86
48800;BME280;34611;47.964;7.982;2024-03-17T08:45:20;97289.47;;;11.54;67.79
48800;BME280;34611;47.964;7.982;2024-03-17T08:52:20;97286.00;;;11.54;67.79
48800;BME280;34611;47.964;7.982;2024-03-17T08:59:21;97279.84;;;11.55;67.62
48800;BME280;34611;47.964;7.982;2024-03-17T09:06:21;97285.06;;;11.55;67.60
48800;BME280;34611;47.964;7.982;2024-03-17T09:13:22;97286.00;;;11.54;67.84
48800;BME280;34611;47.964;7.982;2024-03-17T09:20:26;97279.84;;;11.55;67.59
48800;BME280;34611;47.964;7.982;2024-03-17T09:27:26;97279.03;;;11.54;67.67
48800;BME280;34611;47.964;7.982;2024-03-17T09:34:26;97279.84;;;11.55;67.60
48800;BME280;34611;47.964;7.982;2024-03-17T09:41:27;97279.84;;;11.55;67.79
48800;BME280;34611;47.964;7.982;2024-03-17T09:48:29;97274.66;;;11.55;67.78
48800;BME280;34611;47.964;7.982;2024-03-17T09:55:29;97272.03;;;11.55;67.81
48800;BME280;34611;47.964;7.982;2024-03-17T10:02:30;97274.66;;;11.55;67.66
48800;BME280;34611;47.964;7.982;2024-03-17T10:09:30;97279.84;;;11.55;67.81
48800;BME280;34611;47.964;7.982;2024-03-17T10:16:35;97285.06;;;11.55;67.87
48800;BME280;34611;47.964;7.982;2024-03-17T10:23:35;97290.28;;;11.55;67.78
48800;BME280;34611;47.964;7.982;2024-03-17T10:30:35;97292.88;;;11.55;67.74
48800;BME280;34611;47.964;7.982;2024-03-17T10:37:37;97281.66;;;11.54;67.67
48800;BME280;34611;47.964;7.982;2024-03-17T10:44:38;97297.13;;;11.56;67.62
48800;BME280;34611;47.964;7.982;2024-03-17T10:51:38;97298.91;;;11.55;67.79
48800;BME280;34611;47.964;7.982;2024-03-17T10:58:44;97305.91;;;11.55;67.82
48800;BME280;34611;47.964;7.982;2024-03-17T11:05:50;97292.88;;;11.55;67.65
48800;BME280;34611;47.964;7.982;2024-03-17T11:12:53;97288.59;;;11.54;67.71
48800;BME280;34611;47.964;7.982;2024-03-17T11:20:10;97285.06;;;11.55;67.61
48800;BME280;34611;47.964;7.982;2024-03-17T11:27:46;97273.84;;;11.54;67.68
48800;BME280;34611;47.964;7.982;2024-03-17T11:34:42;97274.78;;;11.53;67.57
48800;BME280;34611;47.964;7.982;2024-03-17T11:41:43;97278.91;;;11.56;67.78
48800;BME280;34611;47.964;7.982;2024-03-17T11:48:47;97266.03;;;11.54;67.64
48800;BME280;34611;47.964;7.982;2024-03-17T11:55:50;97253.81;;;11.55;67.77
48800;BME280;34611;47.964;7.982;2024-03-17T12:02:52;97249.56;;;11.54;67.59
48800;BME280;34611;47.964;7.982;2024-03-17T12:09:53;97247.78;;;11.54;67.71
48800;BME280;34611;47.964;7.982;2024-03-17T12:16:56;97242.59;;;11.54;67.89
48800;BME280;34611;47.964;7.982;2024-03-17T12:23:57;97240.81;;;11.55;67.81
48800;BME280;34611;47.964;7.982;2024-03-17T12:30:57;97233.00;;;11.55;67.72
48800;BME280;34611;47.964;7.982;2024-03-17T12:37:59;97233.81;;;11.55;67.65
48800;BME280;34611;47.964;7.982;2024-03-17T12:44:59;97237.38;;;11.54;67.66
48800;BME280;34611;47.964;7.982;2024-03-17T12:52:04;97225.19;;;11.55;67.68
48800;BME280;34611;47.964;7.982;2024-03-17T12:59:05;97213.09;;;11.54;67.89
48800;BME280;34611;47.964;7.982;2024-03-17T13:06:24;97198.31;;;11.54;67.82
48800;BME280;34611;47.964;7.982;2024-03-17T13:13:25;97194.75;;;11.55;67.81
48800;BME280;34611;47.964;7.982;2024-03-17T13:20:25;97191.34;;;11.55;67.82
48800;BME280;34611;47.964;7.982;2024-03-17T13:27:26;97185.31;;;11.54;67.73
48800;BME280;34611;47.964;7.982;2024-03-17T13:34:26;97173.94;;;11.55;67.95
48800;BME280;34611;47.964;7.982;2024-03-17T13:41:26;97154.88;;;11.55;67.59
48800;BME280;34611;47.964;7.982;2024-03-17T13:48:27;97151.47;;;11.54;67.79
48800;BME280;34611;47.964;7.982;2024-03-17T13:55:27;97148.00;;;11.54;67.85
48800;BME280;34611;47.964;7.982;2024-03-17T14:02:27;97142.81;;;11.54;67.79
48800;BME280;34611;47.964;7.982;2024-03-17T14:09:29;97132.38;;;11.54;67.79
48800;BME280;34611;47.964;7.982;2024-03-17T14:16:30;97126.38;;;11.53;67.74
48800;BME280;34611;47.964;7.982;2024-03-17T14:23:32;97121.97;;;11.54;67.82
48800;BME280;34611;47.964;7.982;2024-03-17T14:30:33;97113.22;;;11.55;67.85
48800;BME280;34611;47.964;7.982;2024-03-17T14:37:33;97120.22;;;11.54;67.84
48800;BME280;34611;47.964;7.982;2024-03-17T14:44:34;97110.75;;;11.53;67.62
48800;BME280;34611;47.964;7.982;2024-03-17T14:51:35;97107.19;;;11.54;67.68
48800;BME280;34611;47.964;7.982;2024-03-17T14:58:35;97106.34;;;11.54;67.69
48800;BME280;34611;47.964;7.982;2024-03-17T15:05:36;97114.75;;;11.58;67.65
48800;BME280;34611;47.964;7.982;2024-03-17T15:12:36;97113.22;;;11.55;68.02
48800;BME280;34611;47.964;7.982;2024-03-17T15:19:36;97120.06;;;11.56;67.81
48800;BME280;34611;47.964;7.982;2024-03-17T15:26:42;97115.81;;;11.55;67.80
48800;BME280;34611;47.964;7.982;2024-03-17T15:33:43;97132.38;;;11.54;67.91
48800;BME280;34611;47.964;7.982;2024-03-17T15:40:43;97127.38;;;11.62;67.92
48800;BME280;34611;47.964;7.982;2024-03-17T15:47:44;97121.72;;;11.57;67.99
48800;BME280;34611;47.964;7.982;2024-03-17T15:54:45;97108.84;;;11.55;68.19
48800;BME280;34611;47.964;7.982;2024-03-17T16:01:45;97094.59;;;11.60;67.96
48800;BME280;34611;47.964;7.982;2024-03-17T16:08:46;97099.25;;;11.56;67.95
48800;BME280;34611;47.964;7.982;2024-03-17T16:15:47;97094.03;;;11.56;68.19
48800;BME280;34611;47.964;7.982;2024-03-17T16:22:47;97095.81;;;11.55;68.04
48800;BME280;34611;47.964;7.982;2024-03-17T16:29:52;97093.22;;;11.55;67.99
48800;BME280;34611;47.964;7.982;2024-03-17T16:36:52;97090.63;;;11.55;68.09
48800;BME280;34611;47.964;7.982;2024-03-17T16:50:53;97091.38;;;11.67;67.60
48800;BME280;34611;47.964;7.982;2024-03-17T16:57:53;97091.31;;;11.58;68.26
48800;BME280;34611;47.964;7.982;2024-03-17T17:04:53;97083.50;;;11.58;68.17
48800;BME280;34611;47.964;7.982;2024-03-17T17:11:54;97091.88;;;11.61;68.23
48800;BME280;34611;47.964;7.982;2024-03-17T17:25:55;97079.00;;;11.60;68.22
48800;BME280;34611;47.964;7.982;2024-03-17T17:32:55;97068.69;;;11.58;67.93
48800;BME280;34611;47.964;7.982;2024-03-17T17:39:55;97075.56;;;11.59;68.18
48800;BME280;34611;47.964;7.982;2024-03-17T17:46:56;97063.50;;;11.58;68.13
48800;BME280;34611;47.964;7.982;2024-03-17T17:53:56;97059.94;;;11.59;68.12
48800;BME280;34611;47.964;7.982;2024-03-17T18:00:57;97052.94;;;11.60;68.10
48800;BME280;34611;47.964;7.982;2024-03-17T18:07:58;97055.56;;;11.60;67.96
48800;BME280;34611;47.964;7.982;2024-03-17T18:14:58;97044.75;;;11.64;68.07
48800;BME280;34611;47.964;7.982;2024-03-17T18:22:00;97049.53;;;11.59;68.40
48800;BME280;34611;47.964;7.982;2024-03-17T18:29:00;97052.13;;;11.59;68.27
48800;BME280;34611;47.964;7.982;2024-03-17T18:36:01;97056.53;;;11.59;68.04
48800;BME280;34611;47.964;7.982;2024-03-17T18:43:01;97048.72;;;11.59;68.27
48800;BME280;34611;47.964;7.982;2024-03-17T18:50:01;97050.47;;;11.58;68.13
48800;BME280;34611;47.964;7.982;2024-03-17T18:57:02;97050.47;;;11.58;67.93
48800;BME280;34611;47.964;7.982;2024-03-17T19:04:02;97046.09;;;11.59;68.06
48800;BME280;34611;47.964;7.982;2024-03-17T19:11:04;97045.25;;;11.58;68.11
48800;BME280;34611;47.964;7.982;2024-03-17T19:18:05;97046.94;;;11.59;68.21
48800;BME280;34611;47.964;7.982;2024-03-17T19:25:06;97047.88;;;11.58;67.93
48800;BME280;34611;47.964;7.982;2024-03-17T19:32:09;97050.47;;;11.58;68.03
48800;BME280;34611;47.964;7.982;2024-03-17T19:39:10;97051.72;;;11.64;68.01
48800;BME280;34611;47.964;7.982;2024-03-17T19:46:11;97039.13;;;11.59;68.31
48800;BME280;34611;47.964;7.982;2024-03-17T19:53:17;97026.09;;;11.59;68.23
48800;BME280;34611;47.964;7.982;2024-03-17T20:00:17;97022.53;;;11.60;68.36
48800;BME280;34611;47.964;7.982;2024-03-17T20:07:17;97026.91;;;11.60;68.24
48800;BME280;34611;47.964;7.982;2024-03-17T20:14:18;97009.66;;;11.59;68.37
48800;BME280;34611;47.964;7.982;2024-03-17T20:21:18;97005.25;;;11.59;68.14
48800;BME280;34611;47.964;7.982;2024-03-17T20:28:18;96986.06;;;11.60;68.20
48800;BME280;34611;47.964;7.982;2024-03-17T20:35:19;96994.84;;;11.59;68.45
48800;BME280;34611;47.964;7.982;2024-03-17T20:42:20;97013.06;;;11.59;68.40
48800;BME280;34611;47.964;7.982;2024-03-17T20:49:20;97008.69;;;11.60;68.36
48800;BME280;34611;47.964;7.982;2024-03-17T20:56:20;97007.88;;;11.59;68.22
48800;BME280;34611;47.964;7.982;2024-03-17T21:03:20;97009.50;;;11.60;68.31
48800;BME280;34611;47.964;7.982;2024-03-17T21:10:21;96992.25;;;11.59;68.44
48800;BME280;34611;47.964;7.982;2024-03-17T21:17:21;96990.47;;;11.60;68.36
48800;BME280;34611;47.964;7.982;2024-03-17T21:24:22;96988.69;;;11.60;68.32
48800;BME280;34611;47.964;7.982;2024-03-17T21:31:23;96991.28;;;11.60;68.30
48800;BME280;34611;47.964;7.982;2024-03-17T21:38:23;96994.72;;;11.61;68.23
48800;BME280;34611;47.964;7.982;2024-03-17T21:45:23;96992.25;;;11.59;68.40
48800;BME280;34611;47.964;7.982;2024-03-17T21:52:24;96980.88;;;11.60;68.54
48800;BME280;34611;47.964;7.982;2024-03-17T21:59:24;96967.84;;;11.60;68.38
48800;BME280;34611;47.964;7.982;2024-03-17T22:06:25;96967.03;;;11.60;68.35
48800;BME280;34611;47.964;7.982;2024-03-17T22:13:26;96956.63;;;11.60;68.25
48800;BME280;34611;47.964;7.982;2024-03-17T22:20:26;96959.34;;;11.58;68.59
48800;BME280;34611;47.964;7.982;2024-03-17T22:27:27;96938.38;;;11.60;68.45
48800;BME280;34611;47.964;7.982;2024-03-17T22:34:27;96921.94;;;11.59;68.20
48800;BME280;34611;47.964;7.982;2024-03-17T22:41:27;96927.97;;;11.60;68.20
48800;BME280;34611;47.964;7.982;2024-03-17T22:48:30;96916.75;;;11.59;68.33
48800;BME280;34611;47.964;7.982;2024-03-17T22:55:39;96913.16;;;11.60;68.47
48800;BME280;34611;47.964;7.982;2024-03-17T23:02:40;96906.31;;;11.59;68.31
48800;BME280;34611;47.964;7.982;2024-03-17T23:09:40;96901.94;;;11.60;68.38
48800;BME280;34611;47.964;7.982;2024-03-17T23:16:40;96905.34;;;11.60;68.35
48800;BME280;34611;47.964;7.982;2024-03-17T23:23:41;96894.94;;;11.60;68.59
48800;BME280;34611;47.964;7.982;2024-03-17T23:30:41;96893.19;;;11.61;68.50
48800;BME280;34611;47.964;7.982;2024-03-17T23:37:42;96898.53;;;11.59;68.58
48800;BME280;34611;47.964;7.982;2024-03-17T23:44:42;96888.91;;;11.60;68.26
48800;BME280;34611;47.964;7.982;2024-03-17T23:51:42;96875.91;;;11.60;68.53
48800;BME280;34611;47.964;7.982;2024-03-17T23:58:42;96882.09;;;11.59;68.39
